Ana Sayfa
METAR-TAF:

METAR-TAF

Havaalanları :

Meekatharra, Avustralya

Enlem: 26-36-42S, Boylam: 118-32-52E, yükseklik: 522 m

Güncel hava durumu gözlemi

Rapor saat 23:00 UTC de 39 dakika önce yapıldı.
Rüzgar güneydoğudan 12 kt
Sıcaklık 25°C
Nem 19%
Basınç 1016 hPa
Görüş mesafesi 10 km veya daha fazla

METAR: YMEK 082300Z AUTO 13012KT 9999 // NCD 25/00 Q1016

Saat: 07:39 (23:39 UTC)


TAF: eksik

4.000'den fazla havaalanı için hava durumu gözlemleri ve tahminleri (METAR ve TAF raporları).

Kullanılabilir istasyonlar harita üzerinde sarı ve kırmızı noktalarla gösterilir.

İstasyonun adını görmek için fareyi noktanın üzerinde gezdirin.

Sonrasında hava gözlem ve tahminlerini görmek için tıklayın.

Haritayı değiştirmek için: yaklaştırmak için siyah artı işaretli yeşil düğmeye ve uzaklaştırmak için de eksi işaretli düğmeye hızla tıklayın; bitişik haritalar için yeşil okları kullanın.


METAR-TAF: